Aviation Digital Data Service (ADDS)

Output produced by METARs form (1037 UTC 17 June 2019)
found at http://www.aviationweather.gov/metar/data/
 
METAR text: OOMS 170950Z 06013KT 9000 NSC 36/27 Q0998 WS R08L NOSIG
Conditions at: OOMS (SEEB INTL/MUSCAT, OM) observed 0950 UTC 17 June 2019
Temperature: 36.0°C (97°F)
Dewpoint: 27.0°C (81°F) [RH = 60%]
Pressure (altimeter): 29.47 inches Hg (998.0 mb)
Winds: from the ENE (60 degrees) at 15 MPH (13 knots; 6.7 m/s)
Visibility: 6 miles ( 9 km)
Ceiling: at least 12,000 feet AGL
Clouds: sky clear below 12,000 feet AGL
Weather: no significant weather observed at this time

METAR text: OOMS 170850Z 06013KT CAVOK 37/27 Q0999 NOSIG
Conditions at: OOMS (SEEB INTL/MUSCAT, OM) observed 0850 UTC 17 June 2019
Temperature: 37.0°C (99°F)
Dewpoint: 27.0°C (81°F) [RH = 57%]
Pressure (altimeter): 29.50 inches Hg (999.0 mb)
Winds: from the ENE (60 degrees) at 15 MPH (13 knots; 6.7 m/s)
Visibility: 6 or more miles (10+ km)
Ceiling: ceiling and visibility are OK
Clouds: unknown
Weather: no significant weather observed at this time

METAR text: OOMS 170750Z 06011KT CAVOK 37/27 Q0999 NOSIG
Conditions at: OOMS (SEEB INTL/MUSCAT, OM) observed 0750 UTC 17 June 2019
Temperature: 37.0°C (99°F)
Dewpoint: 27.0°C (81°F) [RH = 57%]
Pressure (altimeter): 29.50 inches Hg (999.0 mb)
Winds: from the ENE (60 degrees) at 13 MPH (11 knots; 5.7 m/s)
Visibility: 6 or more miles (10+ km)
Ceiling: ceiling and visibility are OK
Clouds: unknown
Weather: no significant weather observed at this time

METAR text: OOMS 170650Z 06011KT 9000 NSC 37/26 Q1000 NOSIG
Conditions at: OOMS (SEEB INTL/MUSCAT, OM) observed 0650 UTC 17 June 2019
Temperature: 37.0°C (99°F)
Dewpoint: 26.0°C (79°F) [RH = 54%]
Pressure (altimeter): 29.53 inches Hg (1000.0 mb)
Winds: from the ENE (60 degrees) at 13 MPH (11 knots; 5.7 m/s)
Visibility: 6 miles ( 9 km)
Ceiling: at least 12,000 feet AGL
Clouds: sky clear below 12,000 feet AGL
Weather: no significant weather observed at this time

METAR text: OOMS 170550Z 05008KT 9000 NSC 36/25 Q1000 WS R08L NOSIG
Conditions at: OOMS (SEEB INTL/MUSCAT, OM) observed 0550 UTC 17 June 2019
Temperature: 36.0°C (97°F)
Dewpoint: 25.0°C (77°F) [RH = 53%]
Pressure (altimeter): 29.53 inches Hg (1000.0 mb)
Winds: from the NE (50 degrees) at 9 MPH (8 knots; 4.1 m/s)
Visibility: 6 miles ( 9 km)
Ceiling: at least 12,000 feet AGL
Clouds: sky clear below 12,000 feet AGL
Weather: no significant weather observed at this time

METAR text: OOMS 170450Z 06005KT 9000 NSC 39/21 Q1000 NOSIG
Conditions at: OOMS (SEEB INTL/MUSCAT, OM) observed 0450 UTC 17 June 2019
Temperature: 39.0°C (102°F)
Dewpoint: 21.0°C (70°F) [RH = 36%]
Pressure (altimeter): 29.53 inches Hg (1000.0 mb)
Winds: from the ENE (60 degrees) at 6 MPH (5 knots; 2.6 m/s)
Visibility: 6 miles ( 9 km)
Ceiling: at least 12,000 feet AGL
Clouds: sky clear below 12,000 feet AGL
Weather: no significant weather observed at this time

METAR text: OOMS 170350Z VRB02KT 9000 NSC 37/26 Q0999 NOSIG
Conditions at: OOMS (SEEB INTL/MUSCAT, OM) observed 0350 UTC 17 June 2019
Temperature: 37.0°C (99°F)
Dewpoint: 26.0°C (79°F) [RH = 54%]
Pressure (altimeter): 29.50 inches Hg (999.0 mb)
Winds: variable direction winds at 2 MPH (2 knots; 1.0 m/s)
Visibility: 6 miles ( 9 km)
Ceiling: at least 12,000 feet AGL
Clouds: sky clear below 12,000 feet AGL
Weather: no significant weather observed at this time

METAR text: OOMS 170250Z 06003KT CAVOK 33/29 Q0999 WS R08L NOSIG
Conditions at: OOMS (SEEB INTL/MUSCAT, OM) observed 0250 UTC 17 June 2019
Temperature: 33.0°C (91°F)
Dewpoint: 29.0°C (84°F) [RH = 80%]
Pressure (altimeter): 29.50 inches Hg (999.0 mb)
Winds: from the ENE (60 degrees) at 3 MPH (3 knots; 1.5 m/s)
Visibility: 6 or more miles (10+ km)
Ceiling: ceiling and visibility are OK
Clouds: unknown
Weather: no significant weather observed at this time

METAR text: OOMS 170150Z 32002KT CAVOK 31/28 Q0998 NOSIG
Conditions at: OOMS (SEEB INTL/MUSCAT, OM) observed 0150 UTC 17 June 2019
Temperature: 31.0°C (88°F)
Dewpoint: 28.0°C (82°F) [RH = 84%]
Pressure (altimeter): 29.47 inches Hg (998.0 mb)
Winds: from the NW (320 degrees) at 2 MPH (2 knots; 1.0 m/s)
Visibility: 6 or more miles (10+ km)
Ceiling: ceiling and visibility are OK
Clouds: unknown
Weather: no significant weather observed at this time

METAR text: OOMS 170050Z VRB02KT CAVOK 32/28 Q0998 NOSIG
Conditions at: OOMS (SEEB INTL/MUSCAT, OM) observed 0050 UTC 17 June 2019
Temperature: 32.0°C (90°F)
Dewpoint: 28.0°C (82°F) [RH = 80%]
Pressure (altimeter): 29.47 inches Hg (998.0 mb)
Winds: variable direction winds at 2 MPH (2 knots; 1.0 m/s)
Visibility: 6 or more miles (10+ km)
Ceiling: ceiling and visibility are OK
Clouds: unknown
Weather: no significant weather observed at this time

METAR text: OOMS 162350Z 03003KT CAVOK 32/28 Q0997 NOSIG
Conditions at: OOMS (SEEB INTL/MUSCAT, OM) observed 2350 UTC 16 June 2019
Temperature: 32.0°C (90°F)
Dewpoint: 28.0°C (82°F) [RH = 80%]
Pressure (altimeter): 29.44 inches Hg (997.0 mb)
Winds: from the NNE (30 degrees) at 3 MPH (3 knots; 1.5 m/s)
Visibility: 6 or more miles (10+ km)
Ceiling: ceiling and visibility are OK
Clouds: unknown
Weather: no significant weather observed at this time

METAR text: OOMS 162250Z 08005KT CAVOK 32/29 Q0998 WS R08L NOSIG
Conditions at: OOMS (SEEB INTL/MUSCAT, OM) observed 2250 UTC 16 June 2019
Temperature: 32.0°C (90°F)
Dewpoint: 29.0°C (84°F) [RH = 84%]
Pressure (altimeter): 29.47 inches Hg (998.0 mb)
Winds: from the E (80 degrees) at 6 MPH (5 knots; 2.6 m/s)
Visibility: 6 or more miles (10+ km)
Ceiling: ceiling and visibility are OK
Clouds: unknown
Weather: no significant weather observed at this time

METAR text: OOMS 162150Z 04004KT CAVOK 32/29 Q0997 WS R08L NOSIG
Conditions at: OOMS (SEEB INTL/MUSCAT, OM) observed 2150 UTC 16 June 2019
Temperature: 32.0°C (90°F)
Dewpoint: 29.0°C (84°F) [RH = 84%]
Pressure (altimeter): 29.44 inches Hg (997.0 mb)
Winds: from the NE (40 degrees) at 5 MPH (4 knots; 2.1 m/s)
Visibility: 6 or more miles (10+ km)
Ceiling: ceiling and visibility are OK
Clouds: unknown
Weather: no significant weather observed at this time

METAR text: OOMS 162050Z 08005KT CAVOK 33/29 Q0998 WS R08L NOSIG
Conditions at: OOMS (SEEB INTL/MUSCAT, OM) observed 2050 UTC 16 June 2019
Temperature: 33.0°C (91°F)
Dewpoint: 29.0°C (84°F) [RH = 80%]
Pressure (altimeter): 29.47 inches Hg (998.0 mb)
Winds: from the E (80 degrees) at 6 MPH (5 knots; 2.6 m/s)
Visibility: 6 or more miles (10+ km)
Ceiling: ceiling and visibility are OK
Clouds: unknown
Weather: no significant weather observed at this time

METAR text: OOMS 161950Z 04006KT CAVOK 34/29 Q0998 NOSIG
Conditions at: OOMS (SEEB INTL/MUSCAT, OM) observed 1950 UTC 16 June 2019
Temperature: 34.0°C (93°F)
Dewpoint: 29.0°C (84°F) [RH = 75%]
Pressure (altimeter): 29.47 inches Hg (998.0 mb)
Winds: from the NE (40 degrees) at 7 MPH (6 knots; 3.1 m/s)
Visibility: 6 or more miles (10+ km)
Ceiling: ceiling and visibility are OK
Clouds: unknown
Weather: no significant weather observed at this time

METAR text: OOMS 161850Z 28004KT CAVOK 37/13 Q0997 NOSIG
Conditions at: OOMS (SEEB INTL/MUSCAT, OM) observed 1850 UTC 16 June 2019
Temperature: 37.0°C (99°F)
Dewpoint: 13.0°C (55°F) [RH = 24%]
Pressure (altimeter): 29.44 inches Hg (997.0 mb)
Winds: from the W (280 degrees) at 5 MPH (4 knots; 2.1 m/s)
Visibility: 6 or more miles (10+ km)
Ceiling: ceiling and visibility are OK
Clouds: unknown
Weather: no significant weather observed at this time

METAR text: OOMS 161750Z 25005KT CAVOK 38/13 Q0998 NOSIG
Conditions at: OOMS (SEEB INTL/MUSCAT, OM) observed 1750 UTC 16 June 2019
Temperature: 38.0°C (100°F)
Dewpoint: 13.0°C (55°F) [RH = 23%]
Pressure (altimeter): 29.47 inches Hg (998.0 mb)
Winds: from the WSW (250 degrees) at 6 MPH (5 knots; 2.6 m/s)
Visibility: 6 or more miles (10+ km)
Ceiling: ceiling and visibility are OK
Clouds: unknown
Weather: no significant weather observed at this time

METAR text: OOMS 161650Z 22003KT CAVOK 38/16 Q0998 NOSIG
Conditions at: OOMS (SEEB INTL/MUSCAT, OM) observed 1650 UTC 16 June 2019
Temperature: 38.0°C (100°F)
Dewpoint: 16.0°C (61°F) [RH = 27%]
Pressure (altimeter): 29.47 inches Hg (998.0 mb)
Winds: from the SW (220 degrees) at 3 MPH (3 knots; 1.5 m/s)
Visibility: 6 or more miles (10+ km)
Ceiling: ceiling and visibility are OK
Clouds: unknown
Weather: no significant weather observed at this time

METAR text: OOMS 161550Z 22004KT 170V240 CAVOK 38/21 Q0998 NOSIG
Conditions at: OOMS (SEEB INTL/MUSCAT, OM) observed 1550 UTC 16 June 2019
Temperature: 38.0°C (100°F)
Dewpoint: 21.0°C (70°F) [RH = 38%]
Pressure (altimeter): 29.47 inches Hg (998.0 mb)
Winds: from the SW (220 degrees) at 5 MPH (4 knots; 2.1 m/s)
Visibility: 6 or more miles (10+ km)
Ceiling: ceiling and visibility are OK
Clouds: unknown
Weather: no significant weather observed at this time

METAR text: OOMS 161450Z 31003KT 280V340 CAVOK 38/24 Q0997 NOSIG
Conditions at: OOMS (SEEB INTL/MUSCAT, OM) observed 1450 UTC 16 June 2019
Temperature: 38.0°C (100°F)
Dewpoint: 24.0°C (75°F) [RH = 45%]
Pressure (altimeter): 29.44 inches Hg (997.0 mb)
Winds: from the NW (310 degrees) at 3 MPH (3 knots; 1.5 m/s)
Visibility: 6 or more miles (10+ km)
Ceiling: ceiling and visibility are OK
Clouds: unknown
Weather: no significant weather observed at this time

METAR text: OOMS 161350Z 09004KT 9000 NSC 36/28 Q0997 NOSIG
Conditions at: OOMS (SEEB INTL/MUSCAT, OM) observed 1350 UTC 16 June 2019
Temperature: 36.0°C (97°F)
Dewpoint: 28.0°C (82°F) [RH = 64%]
Pressure (altimeter): 29.44 inches Hg (997.0 mb)
Winds: from the E (90 degrees) at 5 MPH (4 knots; 2.1 m/s)
Visibility: 6 miles ( 9 km)
Ceiling: at least 12,000 feet AGL
Clouds: sky clear below 12,000 feet AGL
Weather: no significant weather observed at this time

METAR text: OOMS 161250Z 06008KT 030V090 9000 NSC 36/27 Q0997 NOSIG
Conditions at: OOMS (SEEB INTL/MUSCAT, OM) observed 1250 UTC 16 June 2019
Temperature: 36.0°C (97°F)
Dewpoint: 27.0°C (81°F) [RH = 60%]
Pressure (altimeter): 29.44 inches Hg (997.0 mb)
Winds: from the ENE (60 degrees) at 9 MPH (8 knots; 4.1 m/s)
Visibility: 6 miles ( 9 km)
Ceiling: at least 12,000 feet AGL
Clouds: sky clear below 12,000 feet AGL
Weather: no significant weather observed at this time

METAR text: OOMS 161150Z 06012KT 9000 NSC 36/28 Q0997 NOSIG
Conditions at: OOMS (SEEB INTL/MUSCAT, OM) observed 1150 UTC 16 June 2019
Temperature: 36.0°C (97°F)
Dewpoint: 28.0°C (82°F) [RH = 64%]
Pressure (altimeter): 29.44 inches Hg (997.0 mb)
Winds: from the ENE (60 degrees) at 14 MPH (12 knots; 6.2 m/s)
Visibility: 6 miles ( 9 km)
Ceiling: at least 12,000 feet AGL
Clouds: sky clear below 12,000 feet AGL
Weather: no significant weather observed at this time

METAR text: OOMS 161050Z 06015KT 9000 NSC 36/27 Q0998 NOSIG
Conditions at: OOMS (SEEB INTL/MUSCAT, OM) observed 1050 UTC 16 June 2019
Temperature: 36.0°C (97°F)
Dewpoint: 27.0°C (81°F) [RH = 60%]
Pressure (altimeter): 29.47 inches Hg (998.0 mb)
Winds: from the ENE (60 degrees) at 17 MPH (15 knots; 7.7 m/s)
Visibility: 6 miles ( 9 km)
Ceiling: at least 12,000 feet AGL
Clouds: sky clear below 12,000 feet AGL
Weather: no significant weather observed at this time

METAR text: OOMS 160950Z 06014KT CAVOK 36/28 Q0998 WS R08L NOSIG
Conditions at: OOMS (SEEB INTL/MUSCAT, OM) observed 0950 UTC 16 June 2019
Temperature: 36.0°C (97°F)
Dewpoint: 28.0°C (82°F) [RH = 64%]
Pressure (altimeter): 29.47 inches Hg (998.0 mb)
Winds: from the ENE (60 degrees) at 16 MPH (14 knots; 7.2 m/s)
Visibility: 6 or more miles (10+ km)
Ceiling: ceiling and visibility are OK
Clouds: unknown
Weather: no significant weather observed at this time

METAR text: OOMS 160850Z 05017KT CAVOK 35/29 Q0999 WS R08L NOSIG
Conditions at: OOMS (SEEB INTL/MUSCAT, OM) observed 0850 UTC 16 June 2019
Temperature: 35.0°C (95°F)
Dewpoint: 29.0°C (84°F) [RH = 71%]
Pressure (altimeter): 29.50 inches Hg (999.0 mb)
Winds: from the NE (50 degrees) at 20 MPH (17 knots; 8.7 m/s)
Visibility: 6 or more miles (10+ km)
Ceiling: ceiling and visibility are OK
Clouds: unknown
Weather: no significant weather observed at this time

METAR text: OOMS 160750Z 04009KT CAVOK 37/27 Q1000 NOSIG
Conditions at: OOMS (SEEB INTL/MUSCAT, OM) observed 0750 UTC 16 June 2019
Temperature: 37.0°C (99°F)
Dewpoint: 27.0°C (81°F) [RH = 57%]
Pressure (altimeter): 29.53 inches Hg (1000.0 mb)
Winds: from the NE (40 degrees) at 10 MPH (9 knots; 4.6 m/s)
Visibility: 6 or more miles (10+ km)
Ceiling: ceiling and visibility are OK
Clouds: unknown
Weather: no significant weather observed at this time

METAR text: OOMS 160650Z 05012KT CAVOK 36/25 Q1000 NOSIG
Conditions at: OOMS (SEEB INTL/MUSCAT, OM) observed 0650 UTC 16 June 2019
Temperature: 36.0°C (97°F)
Dewpoint: 25.0°C (77°F) [RH = 53%]
Pressure (altimeter): 29.53 inches Hg (1000.0 mb)
Winds: from the NE (50 degrees) at 14 MPH (12 knots; 6.2 m/s)
Visibility: 6 or more miles (10+ km)
Ceiling: ceiling and visibility are OK
Clouds: unknown
Weather: no significant weather observed at this time

METAR text: OOMS 160550Z 04008KT CAVOK 35/29 Q0999 NOSIG
Conditions at: OOMS (SEEB INTL/MUSCAT, OM) observed 0550 UTC 16 June 2019
Temperature: 35.0°C (95°F)
Dewpoint: 29.0°C (84°F) [RH = 71%]
Pressure (altimeter): 29.50 inches Hg (999.0 mb)
Winds: from the NE (40 degrees) at 9 MPH (8 knots; 4.1 m/s)
Visibility: 6 or more miles (10+ km)
Ceiling: ceiling and visibility are OK
Clouds: unknown
Weather: no significant weather observed at this time

METAR text: OOMS 160450Z 05007KT CAVOK 34/29 Q0999 NOSIG
Conditions at: OOMS (SEEB INTL/MUSCAT, OM) observed 0450 UTC 16 June 2019
Temperature: 34.0°C (93°F)
Dewpoint: 29.0°C (84°F) [RH = 75%]
Pressure (altimeter): 29.50 inches Hg (999.0 mb)
Winds: from the NE (50 degrees) at 8 MPH (7 knots; 3.6 m/s)
Visibility: 6 or more miles (10+ km)
Ceiling: ceiling and visibility are OK
Clouds: unknown
Weather: no significant weather observed at this time

METAR text: OOMS 160350Z VRB02KT CAVOK 34/30 Q0999 NOSIG
Conditions at: OOMS (SEEB INTL/MUSCAT, OM) observed 0350 UTC 16 June 2019
Temperature: 34.0°C (93°F)
Dewpoint: 30.0°C (86°F) [RH = 80%]
Pressure (altimeter): 29.50 inches Hg (999.0 mb)
Winds: variable direction winds at 2 MPH (2 knots; 1.0 m/s)
Visibility: 6 or more miles (10+ km)
Ceiling: ceiling and visibility are OK
Clouds: unknown
Weather: no significant weather observed at this time

METAR text: OOMS 160250Z 03002KT CAVOK 33/29 Q0998 NOSIG
Conditions at: OOMS (SEEB INTL/MUSCAT, OM) observed 0250 UTC 16 June 2019
Temperature: 33.0°C (91°F)
Dewpoint: 29.0°C (84°F) [RH = 80%]
Pressure (altimeter): 29.47 inches Hg (998.0 mb)
Winds: from the NNE (30 degrees) at 2 MPH (2 knots; 1.0 m/s)
Visibility: 6 or more miles (10+ km)
Ceiling: ceiling and visibility are OK
Clouds: unknown
Weather: no significant weather observed at this time

METAR text: OOMS 160150Z 00000KT CAVOK 32/28 Q0998 NOSIG
Conditions at: OOMS (SEEB INTL/MUSCAT, OM) observed 0150 UTC 16 June 2019
Temperature: 32.0°C (90°F)
Dewpoint: 28.0°C (82°F) [RH = 80%]
Pressure (altimeter): 29.47 inches Hg (998.0 mb)
Winds: calm
Visibility: 6 or more miles (10+ km)
Ceiling: ceiling and visibility are OK
Clouds: unknown
Weather: no significant weather observed at this time

METAR text: OOMS 160050Z 27003KT 8000 NSC 31/29 Q0997 NOSIG
Conditions at: OOMS (SEEB INTL/MUSCAT, OM) observed 0050 UTC 16 June 2019
Temperature: 31.0°C (88°F)
Dewpoint: 29.0°C (84°F) [RH = 89%]
Pressure (altimeter): 29.44 inches Hg (997.0 mb)
Winds: from the W (270 degrees) at 3 MPH (3 knots; 1.5 m/s)
Visibility: 5 miles ( 8 km)
Ceiling: at least 12,000 feet AGL
Clouds: sky clear below 12,000 feet AGL
Weather: no significant weather observed at this time

METAR text: OOMS 152350Z 00000KT 8000 NSC 32/30 Q0997 NOSIG
Conditions at: OOMS (SEEB INTL/MUSCAT, OM) observed 2350 UTC 15 June 2019
Temperature: 32.0°C (90°F)
Dewpoint: 30.0°C (86°F) [RH = 89%]
Pressure (altimeter): 29.44 inches Hg (997.0 mb)
Winds: calm
Visibility: 5 miles ( 8 km)
Ceiling: at least 12,000 feet AGL
Clouds: sky clear below 12,000 feet AGL
Weather: no significant weather observed at this time

METAR text: OOMS 152250Z 08005KT 8000 NSC 32/29 Q0997 NOSIG
Conditions at: OOMS (SEEB INTL/MUSCAT, OM) observed 2250 UTC 15 June 2019
Temperature: 32.0°C (90°F)
Dewpoint: 29.0°C (84°F) [RH = 84%]
Pressure (altimeter): 29.44 inches Hg (997.0 mb)
Winds: from the E (80 degrees) at 6 MPH (5 knots; 2.6 m/s)
Visibility: 5 miles ( 8 km)
Ceiling: at least 12,000 feet AGL
Clouds: sky clear below 12,000 feet AGL
Weather: no significant weather observed at this time

Forecast for: OOMS (SEEB INTL/MUSCAT, OM)
Text: TAF OOMS 170500Z 1706/1812 06014KT 8000 NSC
Forecast period: 0600 to 1700 UTC 17 June 2019
Forecast type: FROM: standard forecast or significant change
Winds: from the ENE (60 degrees) at 16 MPH (14 knots; 7.2 m/s)
Visibility: 5 miles (8 km)
Ceiling: unknown
Clouds: missing
Weather: no significant weather forecast for this period
Text: BECMG 1717/1719 22010KT
Forecast period: 1700 UTC 17 June 2019 to 0600 UTC 18 June 2019
Forecast type: BECOMING: Conditions expected to become as follows by 1900 UTC 17 June 2019
Winds: from the SW (220 degrees) at 12 MPH (10 knots; 5.1 m/s)
Visibility: 5 miles (8 km)
Ceiling: unknown
Clouds: missing
Weather: no significant weather forecast for this period
Text: BECMG 1806/1808 05013KT
Forecast period: 0600 to 1200 UTC 18 June 2019
Forecast type: BECOMING: Conditions expected to become as follows by 0800 UTC 18 June 2019
Winds: from the NE (50 degrees) at 15 MPH (13 knots; 6.7 m/s)
Visibility: 5 miles (8 km)
Ceiling: unknown
Clouds: missing
Weather: no significant weather forecast for this period